Time;durP1;ratioP1;P1;durP2;ratioP2;P2;SDS_P1;SDS_P2;PMS_P1;PMS_P2;Temp;Humidity;BMP_temperature;BMP_pressure;BME280_temperature;BME280_humidity;BME280_pressure;Samples;Min_cycle;Max_cycle;Signal;HPM_P1;HPM_P2
2022/06/14 00:00:57;;;;;;;;;;;;;;;17.72;43.32;100795.91;10378126;28;20541;-61
2022/06/14 00:06:00;;;;;;;;;;;;;;;17.70;43.22;100798.75;10380345;28;19929;-62
2022/06/14 00:11:05;;;;;;;;;;;;;;;17.66;44.02;100800.91;10378687;28;19929;-61
2022/06/14 00:16:07;;;;;;;;;;;;;;;17.65;43.96;100801.06;10380212;28;19931;-62
2022/06/14 00:21:08;;;;;;;;;;;;;;;17.40;43.65;100797.31;10382574;28;20028;-62
2022/06/14 00:26:11;;;;;;;;;;;;;;;17.39;43.89;100807.25;10384071;28;20360;-62
2022/06/14 00:31:18;;;;;;;;;;;;;;;17.51;43.54;100812.41;10405512;28;19979;-62
2022/06/14 00:36:19;;;;;;;;;;;;;;;17.39;44.13;100811.78;10382180;28;19935;-63
2022/06/14 00:41:26;;;;;;;;;;;;;;;17.30;44.40;100803.63;10383904;28;19929;-62
2022/06/14 00:46:36;;;;;;;;;;;;;;;17.31;44.93;100797.25;10388153;28;20737;-62
2022/06/14 00:51:42;;;;;;;;;;;;;;;17.33;44.83;100793.56;10378603;28;20007;-60
2022/06/14 00:56:50;;;;;;;;;;;;;;;17.27;44.61;100798.56;10376792;28;19929;-62
2022/06/14 01:01:55;;;;;;;;;;;;;;;17.25;45.00;100805.09;10376206;28;19927;-62
2022/06/14 01:06:58;;;;;;;;;;;;;;;17.27;45.00;100792.34;10376923;28;19925;-61
2022/06/14 01:12:01;;;;;;;;;;;;;;;17.24;45.12;100804.25;10375089;28;19935;-62
2022/06/14 01:17:02;;;;;;;;;;;;;;;17.22;45.26;100795.50;10377483;28;20016;-61
2022/06/14 01:22:04;;;;;;;;;;;;;;;17.17;45.31;100803.16;10375746;28;19931;-62
2022/06/14 01:27:08;;;;;;;;;;;;;;;17.16;44.90;100790.75;10374994;28;19947;-61
2022/06/14 01:32:12;;;;;;;;;;;;;;;17.03;45.33;100788.41;10375130;28;19964;-62
2022/06/14 01:37:13;;;;;;;;;;;;;;;16.95;45.95;100782.97;10389362;28;20026;-60
2022/06/14 01:42:22;;;;;;;;;;;;;;;16.97;45.89;100802.47;10364177;28;20568;-62
2022/06/14 01:47:28;;;;;;;;;;;;;;;17.02;45.79;100792.09;10387685;28;19936;-62
2022/06/14 01:52:38;;;;;;;;;;;;;;;16.96;46.04;100780.13;10373055;28;19929;-62
2022/06/14 01:57:46;;;;;;;;;;;;;;;16.89;45.96;100779.03;10375237;28;20870;-63
2022/06/14 02:08:20;;;;;;;;;;;;;;;16.80;46.66;100774.53;10372873;28;19929;-62
2022/06/14 02:13:27;;;;;;;;;;;;;;;16.74;46.66;100778.66;10371022;28;19975;-62
2022/06/14 02:18:34;;;;;;;;;;;;;;;16.72;46.92;100771.75;10373703;28;20023;-61
2022/06/14 02:23:39;;;;;;;;;;;;;;;16.69;46.56;100761.31;10373868;28;19936;-62
2022/06/14 02:28:47;;;;;;;;;;;;;;;16.63;46.79;100769.97;10372262;28;20773;-62
2022/06/14 02:33:51;;;;;;;;;;;;;;;16.61;46.89;100775.50;10371234;28;20075;-62
2022/06/14 02:38:55;;;;;;;;;;;;;;;16.51;46.90;100780.91;10371571;28;20554;-61
2022/06/14 02:44:01;;;;;;;;;;;;;;;16.41;47.09;100780.13;10373296;28;19925;-61
2022/06/14 02:49:08;;;;;;;;;;;;;;;16.35;47.53;100788.75;10372546;28;20043;-61
2022/06/14 02:54:14;;;;;;;;;;;;;;;16.30;47.65;100783.84;10371550;28;19925;-62
2022/06/14 02:59:34;;;;;;;;;;;;;;;16.24;48.56;100779.94;10371603;28;20013;-62
2022/06/14 03:04:40;;;;;;;;;;;;;;;16.15;49.42;100780.78;10389380;28;19936;-61
2022/06/14 03:09:43;;;;;;;;;;;;;;;16.07;49.62;100783.38;10380918;28;19933;-62
2022/06/14 03:15:03;;;;;;;;;;;;;;;16.07;49.99;100781.53;10378790;28;19932;-60
2022/06/14 03:20:10;;;;;;;;;;;;;;;16.05;49.55;100782.69;10380971;28;19929;-60
2022/06/14 03:25:21;;;;;;;;;;;;;;;16.01;50.11;100794.69;10378351;28;19925;-62
2022/06/14 03:30:42;;;;;;;;;;;;;;;15.98;50.12;100789.63;10378843;28;19925;-60
2022/06/14 03:35:48;;;;;;;;;;;;;;;15.90;50.44;100799.25;10379397;28;19940;-61
2022/06/14 03:40:51;;;;;;;;;;;;;;;15.80;50.40;100793.03;10380063;28;19928;-63
2022/06/14 03:45:58;;;;;;;;;;;;;;;15.79;50.68;100798.56;10379809;28;19991;-68
2022/06/14 03:51:05;;;;;;;;;;;;;;;15.83;50.51;100792.75;10375323;28;20022;-61
2022/06/14 03:56:16;;;;;;;;;;;;;;;15.79;50.73;100796.72;10378279;28;19956;-62
2022/06/14 04:01:23;;;;;;;;;;;;;;;15.77;50.74;100792.47;10377992;28;19929;-61
2022/06/14 04:06:27;;;;;;;;;;;;;;;15.78;51.27;100799.53;10368185;28;20685;-61
2022/06/14 04:11:47;;;;;;;;;;;;;;;15.77;50.80;100809.41;10393852;28;19929;-61
2022/06/14 04:16:53;;;;;;;;;;;;;;;15.62;51.40;100792.91;10378104;28;19936;-62
2022/06/14 04:22:01;;;;;;;;;;;;;;;15.14;52.99;100799.13;10378806;28;19979;-61
2022/06/14 04:27:21;;;;;;;;;;;;;;;15.09;53.51;100812.97;10378703;28;19929;-61
2022/06/14 04:32:27;;;;;;;;;;;;;;;15.35;53.41;100805.19;10381345;28;20404;-61
2022/06/14 04:37:31;;;;;;;;;;;;;;;15.51;53.03;100811.84;10386507;28;20570;-61
2022/06/14 04:42:37;;;;;;;;;;;;;;;15.56;52.36;100818.47;10381726;28;20011;-62
2022/06/14 04:47:47;;;;;;;;;;;;;;;15.52;53.14;100809.03;10377085;28;20307;-62
2022/06/14 04:52:52;;;;;;;;;;;;;;;15.51;52.72;100804.63;10375426;28;19929;-61
2022/06/14 04:57:57;;;;;;;;;;;;;;;15.60;52.83;100807.44;10353179;28;19932;-61
2022/06/14 05:03:04;;;;;;;;;;;;;;;15.63;52.65;100802.66;10347967;28;19937;-62
2022/06/14 05:08:12;;;;;;;;;;;;;;;15.67;52.63;100811.25;10350766;28;20475;-62
2022/06/14 05:13:30;;;;;;;;;;;;;;;15.71;52.50;100804.63;10347210;28;20044;-62
2022/06/14 05:18:52;;;;;;;;;;;;;;;15.77;52.79;100809.41;10347581;28;19929;-62
2022/06/14 05:23:54;;;;;;;;;;;;;;;15.86;52.57;100813.94;10348773;28;19929;-62
2022/06/14 05:29:07;;;;;;;;;;;;;;;15.96;52.82;100807.69;10350553;28;20532;-64
2022/06/14 05:34:27;;;;;;;;;;;;;;;16.04;51.84;100797.09;10350567;28;20452;-61
2022/06/14 05:39:31;;;;;;;;;;;;;;;16.11;51.81;100792.84;10351756;28;19929;-62
2022/06/14 05:44:35;;;;;;;;;;;;;;;16.22;51.92;100803.38;10352001;28;19933;-62
2022/06/14 05:49:38;;;;;;;;;;;;;;;16.38;51.83;100802.75;10350700;28;19925;-61
2022/06/14 05:54:52;;;;;;;;;;;;;;;16.49;50.84;100804.41;10352988;28;19939;-63
2022/06/14 05:59:58;;;;;;;;;;;;;;;16.57;51.68;100799.16;10344319;28;20070;-63
2022/06/14 06:05:11;;;;;;;;;;;;;;;16.73;51.00;100794.94;10351282;28;19936;-64
2022/06/14 06:10:18;;;;;;;;;;;;;;;16.82;50.50;100796.72;10351121;28;20431;-63
2022/06/14 06:15:25;;;;;;;;;;;;;;;16.92;50.46;100794.88;10349059;28;20321;-61
2022/06/14 06:20:27;;;;;;;;;;;;;;;17.13;50.09;100793.75;10348256;28;19983;-60
2022/06/14 06:25:36;;;;;;;;;;;;;;;17.28;49.44;100794.03;10346635;28;20418;-62
2022/06/14 06:30:40;;;;;;;;;;;;;;;17.37;49.71;100798.50;10347536;28;19929;-60
2022/06/14 06:36:01;;;;;;;;;;;;;;;17.51;48.41;100799.78;10348218;28;19929;-60
2022/06/14 06:46:35;;;;;;;;;;;;;;;17.55;48.15;100779.63;10347391;28;19929;-61
2022/06/14 06:51:42;;;;;;;;;;;;;;;17.93;48.66;100799.09;10343904;28;20366;-62
2022/06/14 06:56:46;;;;;;;;;;;;;;;17.96;48.18;100809.56;10347850;28;20563;-62
2022/06/14 07:01:48;;;;;;;;;;;;;;;18.15;46.85;100796.88;10344538;28;19929;-60
2022/06/14 07:06:58;;;;;;;;;;;;;;;18.18;47.25;100793.88;10346912;28;19960;-60
2022/06/14 07:12:02;;;;;;;;;;;;;;;18.37;46.56;100790.97;10345633;28;20376;-59
2022/06/14 07:17:21;;;;;;;;;;;;;;;18.57;45.64;100788.00;10347892;28;19933;-60
2022/06/14 07:22:37;;;;;;;;;;;;;;;18.65;45.47;100777.22;10345989;28;19935;-61
2022/06/14 07:27:42;;;;;;;;;;;;;;;18.91;44.51;100779.00;10347122;28;20503;-61
2022/06/14 07:32:46;;;;;;;;;;;;;;;18.81;43.90;100744.09;10346189;28;19945;-61
2022/06/14 07:38:02;;;;;;;;;;;;;;;19.13;43.07;100776.72;10339998;28;19928;-60
2022/06/14 07:43:24;;;;;;;;;;;;;;;19.37;43.24;100765.91;10343952;28;20109;-60
2022/06/14 07:48:31;;;;;;;;;;;;;;;19.47;43.31;100768.47;10346255;28;19929;-60
2022/06/14 07:53:37;;;;;;;;;;;;;;;19.75;43.22;100768.06;10353656;28;20635;-60
2022/06/14 07:58:57;;;;;;;;;;;;;;;19.94;43.06;100773.13;10355564;28;19944;-60
2022/06/14 08:04:06;;;;;;;;;;;;;;;20.13;42.07;100766.50;10352934;28;19937;-61
2022/06/14 08:09:08;;;;;;;;;;;;;;;20.28;41.30;100758.53;10353341;28;19933;-62
2022/06/14 08:14:12;;;;;;;;;;;;;;;20.49;40.97;100757.91;10354093;28;20267;-60
2022/06/14 08:19:26;;;;;;;;;;;;;;;20.78;40.57;100759.16;10354900;28;19929;-60
2022/06/14 08:24:33;;;;;;;;;;;;;;;20.91;40.20;100752.28;10359071;28;19935;-61
2022/06/14 08:29:44;;;;;;;;;;;;;;;20.99;39.74;100758.50;10357743;28;19929;-61
2022/06/14 08:34:59;;;;;;;;;;;;;;;21.09;39.55;100752.88;10364278;28;20560;-61
2022/06/14 08:40:12;;;;;;;;;;;;;;;21.24;38.39;100750.19;10354742;28;19969;-61
2022/06/14 08:45:13;;;;;;;;;;;;;;;20.98;38.98;100755.97;10353838;28;20851;-61
2022/06/14 08:50:22;;;;;;;;;;;;;;;21.06;39.63;100750.50;10351089;28;19933;-61
2022/06/14 08:55:29;;;;;;;;;;;;;;;21.51;38.89;100750.66;10352374;28;20311;-61
2022/06/14 09:00:54;;;;;;;;;;;;;;;21.87;36.28;100749.97;10365929;28;19935;-59
2022/06/14 09:06:11;;;;;;;;;;;;;;;22.10;35.07;100752.63;10352149;28;20020;-60
2022/06/14 09:11:31;;;;;;;;;;;;;;;22.44;34.40;100743.06;10351057;28;19933;-61
2022/06/14 09:16:42;;;;;;;;;;;;;;;22.55;34.04;100730.91;10352944;28;20549;-61
2022/06/14 09:22:04;;;;;;;;;;;;;;;22.73;34.07;100730.47;10351726;28;19933;-62
2022/06/14 09:27:19;;;;;;;;;;;;;;;23.11;32.53;100727.53;10351161;28;19929;-61
2022/06/14 09:33:09;;;;;;;;;;;;;;;23.38;32.25;100719.63;10341789;28;20403;-62
2022/06/14 09:38:14;;;;;;;;;;;;;;;23.70;31.12;100717.34;10350527;28;20352;-62
2022/06/14 09:43:31;;;;;;;;;;;;;;;23.95;32.47;100710.44;10348095;28;20007;-62
2022/06/14 09:48:38;;;;;;;;;;;;;;;24.22;31.77;100704.28;10349174;28;19929;-62
2022/06/14 09:53:39;;;;;;;;;;;;;;;24.53;30.81;100704.63;10348770;28;19925;-62
2022/06/14 09:58:53;;;;;;;;;;;;;;;24.24;30.59;100700.31;10351154;28;19937;-60
2022/06/14 10:03:57;;;;;;;;;;;;;;;24.41;29.90;100694.50;10342994;28;19939;-60
2022/06/14 10:09:17;;;;;;;;;;;;;;;24.88;29.69;100684.63;10347765;28;19936;-62
2022/06/14 10:14:25;;;;;;;;;;;;;;;24.65;29.08;100683.13;10347432;28;20842;-61
2022/06/14 10:19:32;;;;;;;;;;;;;;;24.77;27.67;100677.06;10359025;28;20067;-61
2022/06/14 10:24:40;;;;;;;;;;;;;;;25.19;27.71;100673.13;10349158;28;19929;-62
2022/06/14 10:29:47;;;;;;;;;;;;;;;25.65;26.15;100668.69;10345989;28;19939;-59
2022/06/14 10:34:57;;;;;;;;;;;;;;;25.68;27.30;100662.78;10350662;28;19929;-60
2022/06/14 10:40:11;;;;;;;;;;;;;;;25.81;24.96;100667.38;10348438;28;20412;-61
2022/06/14 10:45:16;;;;;;;;;;;;;;;25.82;24.89;100657.31;10349175;28;19940;-62
2022/06/14 10:50:20;;;;;;;;;;;;;;;26.24;23.97;100646.88;10346008;28;20183;-61
2022/06/14 10:55:31;;;;;;;;;;;;;;;26.36;24.21;100647.03;10345915;28;19933;-61
2022/06/14 11:00:39;;;;;;;;;;;;;;;26.35;24.81;100640.75;10342020;28;20383;-62
2022/06/14 11:06:01;;;;;;;;;;;;;;;26.20;24.42;100626.56;10334642;28;19987;-62
2022/06/14 11:11:17;;;;;;;;;;;;;;;26.42;25.01;100625.19;10343733;28;19939;-62
2022/06/14 11:16:39;;;;;;;;;;;;;;;25.99;24.87;100614.91;10348070;28;20118;-62
2022/06/14 11:21:40;;;;;;;;;;;;;;;25.86;23.83;100614.94;10346872;28;20419;-62
2022/06/14 11:26:45;;;;;;;;;;;;;;;26.00;24.68;100610.28;10350730;28;19935;-62
2022/06/14 11:31:50;;;;;;;;;;;;;;;26.44;24.49;100603.97;10345613;28;19929;-62
2022/06/14 11:36:57;;;;;;;;;;;;;;;26.69;25.13;100596.88;10361950;28;20092;-62
2022/06/14 11:42:05;;;;;;;;;;;;;;;26.91;24.00;100592.69;10359128;28;19929;-61
2022/06/14 11:47:26;;;;;;;;;;;;;;;27.00;24.95;100582.34;10355080;28;19940;-62
2022/06/14 11:52:30;;;;;;;;;;;;;;;26.69;24.25;100581.31;10355125;28;20018;-61
2022/06/14 11:57:38;;;;;;;;;;;;;;;26.81;24.45;100575.97;10358860;28;20247;-62
2022/06/14 12:02:42;;;;;;;;;;;;;;;27.08;24.01;100578.47;10361487;28;20763;-62
2022/06/14 12:07:58;;;;;;;;;;;;;;;27.07;23.33;100569.47;10357999;28;19933;-61
2022/06/14 12:12:59;;;;;;;;;;;;;;;27.05;24.79;100574.28;10373649;28;19936;-62
2022/06/14 12:18:01;;;;;;;;;;;;;;;27.26;23.75;100564.84;10360209;28;19937;-62
2022/06/14 12:23:08;;;;;;;;;;;;;;;27.38;24.87;100564.94;10354813;28;20075;-62
2022/06/14 12:28:22;;;;;;;;;;;;;;;27.47;23.53;100568.22;10357348;28;19925;-62
2022/06/14 12:33:45;;;;;;;;;;;;;;;27.39;23.44;100561.16;10356337;28;20554;-62
2022/06/14 12:38:49;;;;;;;;;;;;;;;27.22;23.31;100557.31;10354589;28;19932;-62
2022/06/14 12:43:56;;;;;;;;;;;;;;;27.20;22.55;100548.53;10355491;28;20008;-63
2022/06/14 12:49:01;;;;;;;;;;;;;;;27.22;23.18;100543.66;10355512;28;20388;-63
2022/06/14 12:54:21;;;;;;;;;;;;;;;27.20;22.62;100532.94;10355203;28;20007;-61
2022/06/14 12:59:34;;;;;;;;;;;;;;;27.11;22.13;100526.13;10351582;28;19929;-61
2022/06/14 13:04:41;;;;;;;;;;;;;;;26.97;21.64;100528.97;10355185;28;19929;-61
2022/06/14 13:10:03;;;;;;;;;;;;;;;26.76;21.97;100518.50;10350416;28;19939;-62
2022/06/14 13:15:15;;;;;;;;;;;;;;;26.86;22.96;100515.22;10367980;28;20703;-62
2022/06/14 13:20:25;;;;;;;;;;;;;;;26.90;22.74;100513.72;10352822;28;19929;-62
2022/06/14 13:25:40;;;;;;;;;;;;;;;26.82;22.88;100501.22;10351673;28;19929;-64
2022/06/14 13:30:49;;;;;;;;;;;;;;;26.85;21.78;100508.13;10350249;28;20200;-63
2022/06/14 13:36:13;;;;;;;;;;;;;;;26.80;22.10;100501.44;10350858;28;19940;-62
2022/06/14 13:41:20;;;;;;;;;;;;;;;26.62;22.42;100493.19;10351085;28;20060;-62
2022/06/14 13:46:32;;;;;;;;;;;;;;;26.41;22.70;100484.31;10367534;28;19929;-62
2022/06/14 13:51:56;;;;;;;;;;;;;;;26.37;21.61;100471.34;10347216;28;19936;-62
2022/06/14 13:57:04;;;;;;;;;;;;;;;26.04;22.27;100431.53;10349703;28;20022;-61
2022/06/14 14:02:24;;;;;;;;;;;;;;;26.41;22.76;100458.94;10349504;28;20717;-62
2022/06/14 14:07:43;;;;;;;;;;;;;;;26.18;22.92;100421.34;10347860;28;19968;-62
2022/06/14 14:12:44;;;;;;;;;;;;;;;26.29;22.82;100450.63;10350317;28;20387;-62
2022/06/14 14:18:08;;;;;;;;;;;;;;;26.22;22.40;100438.94;10351235;28;20020;-62
2022/06/14 14:23:09;;;;;;;;;;;;;;;26.02;22.71;100411.84;10342918;28;19933;-60
2022/06/14 14:28:22;;;;;;;;;;;;;;;26.18;22.68;100432.25;10349387;28;19967;-61
2022/06/14 14:33:30;;;;;;;;;;;;;;;26.07;20.84;100423.72;10346830;28;19929;-61
2022/06/14 14:38:34;;;;;;;;;;;;;;;25.98;21.06;100416.03;10348387;28;19933;-63
2022/06/14 14:43:36;;;;;;;;;;;;;;;25.92;22.25;100410.38;10349800;28;20544;-62
2022/06/14 14:48:40;;;;;;;;;;;;;;;25.86;22.43;100415.91;10347576;28;19987;-59
2022/06/14 14:53:56;;;;;;;;;;;;;;;25.82;21.13;100398.31;10349089;28;20020;-62
2022/06/14 14:59:01;;;;;;;;;;;;;;;25.79;21.60;100396.84;10347992;28;20383;-61
2022/06/14 15:09:31;;;;;;;;;;;;;;;25.72;21.63;100386.00;10344391;28;20136;-63
2022/06/14 15:14:33;;;;;;;;;;;;;;;25.71;20.97;100378.88;10346774;28;19967;-62
2022/06/14 15:19:57;;;;;;;;;;;;;;;25.68;21.73;100376.59;10347366;28;20382;-64
2022/06/14 15:25:05;;;;;;;;;;;;;;;25.73;22.29;100376.78;10352936;28;19931;-62
2022/06/14 15:30:10;;;;;;;;;;;;;;;25.82;22.38;100384.66;10352605;28;19939;-62
2022/06/14 15:35:22;;;;;;;;;;;;;;;25.82;22.42;100371.91;10351614;28;20470;-63
2022/06/14 15:40:28;;;;;;;;;;;;;;;25.77;22.74;100366.25;10347905;28;20019;-62
2022/06/14 15:45:32;;;;;;;;;;;;;;;25.77;22.56;100366.25;10347397;28;20385;-63
2022/06/14 15:50:36;;;;;;;;;;;;;;;25.79;22.89;100364.13;10345048;28;20601;-61
2022/06/14 15:55:37;;;;;;;;;;;;;;;25.76;22.72;100351.78;10347728;28;20050;-62
2022/06/14 16:00:50;;;;;;;;;;;;;;;25.76;22.86;100345.50;10346088;28;20114;-62
2022/06/14 16:06:01;;;;;;;;;;;;;;;25.77;22.68;100334.38;10343953;28;19930;-62
2022/06/14 16:11:03;;;;;;;;;;;;;;;25.79;22.69;100330.59;10346805;28;19925;-62
2022/06/14 16:16:24;;;;;;;;;;;;;;;25.78;23.25;100337.94;10356033;28;19929;-61
2022/06/14 16:21:29;;;;;;;;;;;;;;;25.82;22.91;100332.88;10355103;28;19929;-62
2022/06/14 16:26:38;;;;;;;;;;;;;;;25.82;22.75;100327.41;10355333;28;19933;-66
2022/06/14 16:31:42;;;;;;;;;;;;;;;25.78;22.54;100327.03;10354242;28;19928;-63
2022/06/14 16:36:51;;;;;;;;;;;;;;;25.80;22.66;100326.81;10355821;28;19929;-62
2022/06/14 16:42:11;;;;;;;;;;;;;;;25.82;22.36;100319.25;10352596;28;21341;-63
2022/06/14 16:47:32;;;;;;;;;;;;;;;25.79;22.89;100315.06;10368748;28;20491;-63
2022/06/14 16:52:51;;;;;;;;;;;;;;;25.75;23.12;100309.22;10354319;28;20450;-63
2022/06/14 16:58:07;;;;;;;;;;;;;;;25.74;23.24;100312.19;10355529;28;20044;-62
2022/06/14 17:03:15;;;;;;;;;;;;;;;25.64;23.63;100309.97;10353787;28;19935;-62
2022/06/14 17:08:22;;;;;;;;;;;;;;;25.64;23.79;100312.69;10370330;28;20077;-62
2022/06/14 17:13:42;;;;;;;;;;;;;;;25.59;22.87;100304.31;10351502;28;19929;-60
2022/06/14 17:18:46;;;;;;;;;;;;;;;25.54;22.72;100304.16;10354231;28;20565;-61
2022/06/14 17:24:06;;;;;;;;;;;;;;;25.53;22.95;100294.31;10347074;28;20302;-62
2022/06/14 17:34:49;;;;;;;;;;;;;;;25.37;22.81;100299.25;10351341;28;19926;-63
2022/06/14 17:39:54;;;;;;;;;;;;;;;25.31;23.28;100297.41;10347997;28;19933;-61
2022/06/14 17:44:58;;;;;;;;;;;;;;;25.25;23.83;100287.34;10348409;28;19975;-62
2022/06/14 17:50:18;;;;;;;;;;;;;;;25.17;23.40;100285.72;10351344;28;20872;-61
2022/06/14 17:55:26;;;;;;;;;;;;;;;25.11;23.42;100281.16;10355243;28;19939;-60
2022/06/14 18:00:33;;;;;;;;;;;;;;;25.05;24.38;100282.84;10352651;28;19925;-61
2022/06/14 18:05:39;;;;;;;;;;;;;;;25.02;24.39;100283.28;10350354;28;20449;-61
2022/06/14 18:10:46;;;;;;;;;;;;;;;24.98;24.46;100287.53;10349466;28;20083;-61
2022/06/14 18:15:50;;;;;;;;;;;;;;;24.91;25.00;100286.72;10351740;28;19929;-61
2022/06/14 18:21:10;;;;;;;;;;;;;;;24.85;25.58;100284.88;10350401;28;19933;-61
2022/06/14 18:26:21;;;;;;;;;;;;;;;24.77;25.63;100293.25;10345546;28;19937;-61
2022/06/14 18:31:28;;;;;;;;;;;;;;;24.69;26.31;100289.72;10362498;28;19998;-61
2022/06/14 18:36:48;;;;;;;;;;;;;;;24.61;26.29;100281.00;10350427;28;20368;-61
2022/06/14 18:41:49;;;;;;;;;;;;;;;24.52;26.28;100283.09;10346710;28;20032;-62
2022/06/14 18:46:56;;;;;;;;;;;;;;;24.39;26.34;100278.50;10349403;28;19980;-62
2022/06/14 18:52:08;;;;;;;;;;;;;;;24.29;26.83;100269.97;10345932;28;19929;-61
2022/06/14 18:57:12;;;;;;;;;;;;;;;24.21;27.07;100272.91;10347933;28;19935;-62
2022/06/14 19:02:31;;;;;;;;;;;;;;;24.10;27.57;100271.69;10342760;28;19933;-62
2022/06/14 19:07:36;;;;;;;;;;;;;;;23.96;27.88;100279.88;10346964;28;20399;-63
2022/06/14 19:12:44;;;;;;;;;;;;;;;23.86;28.50;100263.16;10361845;28;19929;-62
2022/06/14 19:17:48;;;;;;;;;;;;;;;23.74;28.48;100262.09;10350396;28;19939;-61
2022/06/14 19:23:08;;;;;;;;;;;;;;;23.61;28.85;100260.19;10353349;28;19955;-62
2022/06/14 19:28:28;;;;;;;;;;;;;;;23.50;29.03;100269.81;10356240;28;19937;-63
2022/06/14 19:33:37;;;;;;;;;;;;;;;23.40;29.20;100274.81;10343023;28;20121;-63
2022/06/14 19:38:59;;;;;;;;;;;;;;;23.30;29.15;100267.94;10347987;28;20043;-63
2022/06/14 19:44:04;;;;;;;;;;;;;;;23.22;29.59;100272.72;10361869;28;19929;-64
2022/06/14 19:54:30;;;;;;;;;;;;;;;23.03;29.48;100267.00;10358902;28;19929;-61
2022/06/14 19:59:43;;;;;;;;;;;;;;;22.95;30.18;100273.47;10354606;28;19925;-62
2022/06/14 20:05:01;;;;;;;;;;;;;;;22.89;29.81;100279.69;10356640;28;19964;-61
2022/06/14 20:10:04;;;;;;;;;;;;;;;22.83;29.59;100285.09;10367390;28;19968;-63
2022/06/14 20:15:05;;;;;;;;;;;;;;;22.81;32.40;100285.31;10355789;28;19929;-62
2022/06/14 20:20:06;;;;;;;;;;;;;;;22.78;32.24;100296.56;10352230;28;19929;-62
2022/06/14 20:25:09;;;;;;;;;;;;;;;22.72;31.67;100289.25;10368405;28;19935;-62
2022/06/14 20:30:13;;;;;;;;;;;;;;;22.68;30.89;100294.22;10350370;28;20078;-62
2022/06/14 20:35:14;;;;;;;;;;;;;;;22.60;30.75;100292.53;10348236;28;20027;-62
2022/06/14 20:40:17;;;;;;;;;;;;;;;22.56;30.88;100296.69;10339377;28;20016;-63
2022/06/14 20:45:22;;;;;;;;;;;;;;;22.54;30.86;100292.50;10349037;28;19937;-65
2022/06/14 20:50:25;;;;;;;;;;;;;;;22.47;30.66;100289.75;10351276;28;19929;-63
2022/06/14 20:55:37;;;;;;;;;;;;;;;22.40;30.50;100291.59;10350950;28;20685;-66
2022/06/14 21:00:40;;;;;;;;;;;;;;;22.35;30.92;100291.34;10344755;28;20604;-65
2022/06/14 21:05:42;;;;;;;;;;;;;;;22.33;30.64;100291.56;10352079;28;19939;-64
2022/06/14 21:16:07;;;;;;;;;;;;;;;22.24;30.73;100293.56;10350385;28;19933;-62
2022/06/14 21:21:09;;;;;;;;;;;;;;;22.19;31.11;100287.06;10350846;28;19940;-63
2022/06/14 21:26:10;;;;;;;;;;;;;;;22.12;31.58;100284.31;10353579;28;19925;-62
2022/06/14 21:31:16;;;;;;;;;;;;;;;22.05;33.03;100283.41;10350104;28;19936;-63
2022/06/14 21:36:17;;;;;;;;;;;;;;;21.88;32.69;100294.56;10352199;28;19939;-63
2022/06/14 21:41:20;;;;;;;;;;;;;;;21.78;32.84;100287.81;10350394;28;19935;-63
2022/06/14 21:46:22;;;;;;;;;;;;;;;21.76;33.94;100289.88;10360524;28;19929;-62
2022/06/14 21:51:24;;;;;;;;;;;;;;;21.73;33.97;100285.69;10362035;28;20130;-61
2022/06/14 21:56:26;;;;;;;;;;;;;;;21.54;34.11;100292.59;10352022;28;19933;-63
2022/06/14 22:01:28;;;;;;;;;;;;;;;21.48;34.54;100293.34;10342426;28;20404;-62
2022/06/14 22:06:31;;;;;;;;;;;;;;;21.47;34.63;100297.13;10349025;28;19925;-63
2022/06/14 22:11:36;;;;;;;;;;;;;;;21.41;34.56;100292.44;10347193;28;20407;-62
2022/06/14 22:16:37;;;;;;;;;;;;;;;21.37;34.92;100292.84;10361558;28;19933;-63
2022/06/14 22:21:38;;;;;;;;;;;;;;;21.36;35.24;100295.75;10347144;28;19935;-60
2022/06/14 22:26:40;;;;;;;;;;;;;;;21.32;35.71;100299.88;10349554;28;19929;-63
2022/06/14 22:31:42;;;;;;;;;;;;;;;21.28;35.86;100294.00;10361427;28;19933;-61
2022/06/14 22:36:43;;;;;;;;;;;;;;;21.24;36.27;100291.88;10342794;28;19986;-62
2022/06/14 22:41:45;;;;;;;;;;;;;;;21.17;36.42;100287.22;10371418;28;21269;-62
2022/06/14 22:46:46;;;;;;;;;;;;;;;20.91;37.18;100270.72;10374177;28;19925;-62
2022/06/14 22:51:48;;;;;;;;;;;;;;;21.05;37.31;100288.78;10372318;28;19929;-62
2022/06/14 22:56:52;;;;;;;;;;;;;;;20.97;37.98;100287.03;10371916;28;19929;-62
2022/06/14 23:01:55;;;;;;;;;;;;;;;20.87;37.80;100286.50;10370235;28;19929;-61
2022/06/14 23:06:56;;;;;;;;;;;;;;;20.81;37.94;100288.09;10371303;28;20031;-62
2022/06/14 23:11:58;;;;;;;;;;;;;;;20.74;38.10;100281.75;10368739;28;20703;-61
2022/06/14 23:16:59;;;;;;;;;;;;;;;20.68;38.13;100282.50;10370809;28;20418;-63
2022/06/14 23:22:01;;;;;;;;;;;;;;;20.59;38.36;100278.22;10373036;28;19925;-63
2022/06/14 23:27:03;;;;;;;;;;;;;;;20.53;39.01;100276.25;10380409;28;20011;-63
2022/06/14 23:32:05;;;;;;;;;;;;;;;20.45;38.57;100278.03;10379907;28;19925;-61
2022/06/14 23:37:06;;;;;;;;;;;;;;;20.39;38.71;100277.97;10377756;28;19992;-62
2022/06/14 23:42:08;;;;;;;;;;;;;;;20.32;38.75;100280.56;10380623;28;19979;-62
2022/06/14 23:47:09;;;;;;;;;;;;;;;20.23;38.58;100276.28;10387671;28;20012;-62
2022/06/14 23:52:11;;;;;;;;;;;;;;;20.20;38.37;100277.47;10413660;28;19936;-62
2022/06/14 23:57:12;;;;;;;;;;;;;;;20.12;38.55;100270.28;10384746;28;19936;-63
